Accueil
METAR-TAF:

METAR-TAF

Aéroports :

Euro, Pays-Bas

Plate-forme pétrolière

latitude: 51-59-52N, longitude: 3-16-30E, altitude: 18 m

Observation

Le bulletin a été fait il y a 45 minutes, à 05:55 UTC
Vent 15 kt de ouest avec des rafales jusqu'à 17 kt
Température 18°C
Humidité 77%
Pression 1015 hPa
Visibilité 10 km ou plus

METAR: EHSA 240555Z AUTO 27015G17KT 9999 ///////// 18/14 Q1015 W19/H10

Heure: 08:40 (06:40 UTC)


TAF: absent

Observations et prévisions météorologiques de plus de 4000 aéroports (messages METAR et TAF).

Les stations disponibles sont représentées par des disques jaunes et rouges sur la carte.

Passer la souris dessus pour voir le nom de la station.

Cliquer dessus pour voir les observations et prévisions météorologiques.

Pour changer de carte: cliquez sur les boutons verts avec une croix noire pour zoomer, sur le bouton vert avec un tiret pour effectuer un zoom arrière, ou sur les flèches vertes pour les cartes adjacentes.


METAR-TAF: